createdAt,value
2023-02-19T00:00:01.777Z,8.00
2023-02-19T00:02:30.258Z,8.00
2023-02-19T00:04:58.432Z,8.04
2023-02-19T00:07:26.703Z,8.15
2023-02-19T00:09:55.083Z,8.20
2023-02-19T00:12:23.374Z,8.12
2023-02-19T00:14:51.734Z,8.05
2023-02-19T00:17:20.114Z,8.07
2023-02-19T00:19:50.848Z,8.06
2023-02-19T00:22:19.063Z,8.06
2023-02-19T00:24:49.296Z,8.04
2023-02-19T00:27:17.519Z,7.98
2023-02-19T00:29:45.895Z,7.92
2023-02-19T00:32:14.281Z,7.92
2023-02-19T00:34:42.450Z,7.91
2023-02-19T00:37:10.829Z,7.90
2023-02-19T00:39:39.014Z,7.88
2023-02-19T00:42:07.175Z,7.78
2023-02-19T00:44:35.452Z,7.69
2023-02-19T00:47:03.641Z,7.62
2023-02-19T00:49:32.519Z,7.55
2023-02-19T00:52:01.204Z,7.51
2023-02-19T00:54:31.746Z,7.47
2023-02-19T00:57:00.295Z,7.44
2023-02-19T00:59:28.488Z,7.41
2023-02-19T01:01:56.793Z,7.41
2023-02-19T01:04:24.924Z,7.42
2023-02-19T01:06:53.211Z,7.46
2023-02-19T01:09:21.605Z,7.46
2023-02-19T01:11:49.862Z,7.44
2023-02-19T01:14:18.957Z,7.43
2023-02-19T01:16:47.232Z,7.48
2023-02-19T01:19:15.524Z,7.57
2023-02-19T01:21:44.306Z,7.57
2023-02-19T01:24:12.611Z,7.58
2023-02-19T01:26:40.955Z,7.60
2023-02-19T01:29:10.050Z,7.69
2023-02-19T01:31:41.208Z,7.76
2023-02-19T01:34:11.879Z,7.76
2023-02-19T01:36:40.000Z,7.78
2023-02-19T01:39:11.254Z,7.81
2023-02-19T01:41:41.679Z,7.78
2023-02-19T01:44:15.986Z,7.75
2023-02-19T01:46:46.572Z,7.83
2023-02-19T01:49:27.904Z,7.89
2023-02-19T01:52:01.776Z,7.87
2023-02-19T01:54:35.298Z,7.78
2023-02-19T01:57:10.703Z,7.71
2023-02-19T01:59:40.032Z,7.65
2023-02-19T02:02:09.334Z,7.62
2023-02-19T02:04:38.033Z,7.60
2023-02-19T02:07:29.563Z,7.53
2023-02-19T02:10:17.490Z,7.49
2023-02-19T02:12:46.080Z,7.45
2023-02-19T02:15:16.671Z,7.40
2023-02-19T02:17:59.037Z,7.34
2023-02-19T02:20:56.473Z,7.25
2023-02-19T02:23:55.883Z,7.18
2023-02-19T02:26:39.411Z,7.11
2023-02-19T02:29:44.142Z,7.05
2023-02-19T02:32:20.046Z,7.00
2023-02-19T02:34:57.957Z,6.97
2023-02-19T02:37:30.886Z,6.92
2023-02-19T02:40:00.694Z,6.90
2023-02-19T02:42:30.404Z,6.89
2023-02-19T02:45:35.007Z,6.88
2023-02-19T02:48:12.317Z,6.92
2023-02-19T02:50:55.242Z,7.02
2023-02-19T02:54:08.263Z,7.11
2023-02-19T02:56:37.748Z,7.16
2023-02-19T02:59:09.081Z,7.22
2023-02-19T03:02:00.689Z,7.29
2023-02-19T03:05:06.802Z,7.33
2023-02-19T03:07:39.580Z,7.40
2023-02-19T03:10:12.567Z,7.48
2023-02-19T03:13:00.306Z,7.57
2023-02-19T03:15:53.150Z,7.67
2023-02-19T03:18:42.420Z,7.71
2023-02-19T03:21:11.990Z,7.68
2023-02-19T03:24:01.092Z,7.69
2023-02-19T03:26:31.931Z,7.73
2023-02-19T03:29:22.121Z,7.81
2023-02-19T03:31:55.374Z,7.85
2023-02-19T03:34:34.686Z,7.82
2023-02-19T03:37:15.814Z,7.85
2023-02-19T03:39:47.474Z,7.92
2023-02-19T03:42:20.977Z,7.95
2023-02-19T03:45:25.927Z,7.87
2023-02-19T03:48:29.923Z,7.80
2023-02-19T03:51:33.120Z,7.75
2023-02-19T03:54:18.703Z,7.69
2023-02-19T03:57:15.235Z,7.64
2023-02-19T04:00:03.683Z,7.55
2023-02-19T04:02:59.712Z,7.44
2023-02-19T04:05:32.284Z,7.31
2023-02-19T04:08:08.987Z,7.22
2023-02-19T04:10:41.130Z,7.15
2023-02-19T04:13:20.885Z,7.08
2023-02-19T04:15:53.866Z,7.01
2023-02-19T04:18:28.797Z,6.94
2023-02-19T04:20:59.278Z,6.90
2023-02-19T04:23:30.739Z,6.83
2023-02-19T04:26:01.502Z,6.77
2023-02-19T04:28:29.983Z,6.73
2023-02-19T04:30:58.278Z,6.72
2023-02-19T04:33:26.430Z,6.72
2023-02-19T04:35:54.808Z,6.71
2023-02-19T04:38:23.088Z,6.72
2023-02-19T04:40:51.670Z,6.75
2023-02-19T04:43:20.353Z,6.78
2023-02-19T04:45:48.431Z,6.81
2023-02-19T04:48:16.703Z,6.85
2023-02-19T04:50:44.974Z,6.91
2023-02-19T04:53:13.170Z,6.93
2023-02-19T04:55:41.426Z,6.95
2023-02-19T04:58:09.555Z,6.99
2023-02-19T05:00:37.762Z,7.06
2023-02-19T05:03:06.052Z,7.12
2023-02-19T05:05:35.361Z,7.17
2023-02-19T05:08:04.748Z,7.20
2023-02-19T05:10:33.845Z,7.19
2023-02-19T05:13:02.134Z,7.22
2023-02-19T05:15:30.523Z,7.26
2023-02-19T05:17:58.812Z,7.29
2023-02-19T05:20:26.947Z,7.35
2023-02-19T05:22:55.242Z,7.37
2023-02-19T05:25:23.397Z,7.39
2023-02-19T05:28:11.538Z,7.38
2023-02-19T05:30:39.614Z,7.35
2023-02-19T05:33:07.783Z,7.35
2023-02-19T05:35:44.794Z,7.32
2023-02-19T05:38:13.660Z,7.29
2023-02-19T05:40:42.852Z,7.26
2023-02-19T05:43:14.208Z,7.24
2023-02-19T05:45:43.883Z,7.20
2023-02-19T05:48:12.898Z,7.16
2023-02-19T05:50:41.175Z,7.11
2023-02-19T05:53:14.981Z,7.09
2023-02-19T05:55:43.257Z,7.05
2023-02-19T05:58:11.433Z,7.01
2023-02-19T06:00:39.624Z,7.00
2023-02-19T06:03:07.985Z,6.95
2023-02-19T06:05:37.696Z,6.94
2023-02-19T06:08:05.969Z,6.94
2023-02-19T06:10:34.782Z,6.95
2023-02-19T06:13:02.939Z,6.99
2023-02-19T06:15:31.103Z,7.03
2023-02-19T06:17:59.380Z,7.03
2023-02-19T06:20:28.476Z,7.06
2023-02-19T06:22:56.748Z,7.11
2023-02-19T06:25:25.237Z,7.14
2023-02-19T06:27:53.425Z,7.10
2023-02-19T06:30:21.629Z,7.18
2023-02-19T06:32:52.723Z,7.33
2023-02-19T06:35:21.002Z,7.45
2023-02-19T06:37:49.999Z,7.56
2023-02-19T06:40:18.276Z,7.61
2023-02-19T06:42:46.855Z,7.64
2023-02-19T06:45:17.997Z,7.53
2023-02-19T06:47:46.478Z,7.55
2023-02-19T06:50:14.657Z,7.50
2023-02-19T06:52:42.927Z,7.36
2023-02-19T06:55:11.516Z,7.25
2023-02-19T06:57:39.686Z,7.05
2023-02-19T07:00:08.837Z,7.01
2023-02-19T07:02:37.053Z,6.86
2023-02-19T07:05:06.057Z,6.82
2023-02-19T07:07:34.462Z,7.08
2023-02-19T07:10:02.802Z,7.32
2023-02-19T07:12:30.909Z,8.01
2023-02-19T07:14:59.042Z,8.63
2023-02-19T07:17:27.215Z,8.71
2023-02-19T07:19:55.493Z,8.69
2023-02-19T07:22:23.620Z,8.58
2023-02-19T07:24:51.839Z,8.88
2023-02-19T07:27:20.434Z,9.84
2023-02-19T07:29:48.703Z,10.21
2023-02-19T07:32:16.864Z,10.57
2023-02-19T07:34:44.941Z,11.27
2023-02-19T07:37:13.119Z,12.43
2023-02-19T07:39:41.399Z,13.78
2023-02-19T07:42:09.554Z,14.52
2023-02-19T07:44:39.315Z,14.16
2023-02-19T07:47:07.711Z,14.71
2023-02-19T07:49:36.023Z,15.55
2023-02-19T07:52:04.233Z,15.05
2023-02-19T07:54:32.498Z,15.01
2023-02-19T07:57:00.605Z,14.57
2023-02-19T07:59:28.710Z,13.95
2023-02-19T08:02:15.466Z,13.23
2023-02-19T08:04:43.592Z,12.88
2023-02-19T08:07:11.786Z,13.03
2023-02-19T08:09:40.061Z,13.36
2023-02-19T08:12:31.606Z,13.61
2023-02-19T08:14:59.753Z,13.61
2023-02-19T08:17:30.527Z,13.27
2023-02-19T08:19:58.820Z,12.96
2023-02-19T08:22:26.940Z,12.33
2023-02-19T08:24:55.043Z,12.64
2023-02-19T08:27:23.184Z,12.83
2023-02-19T08:29:51.774Z,13.30
2023-02-19T08:32:20.191Z,13.84
2023-02-19T08:34:48.273Z,14.05
2023-02-19T08:37:17.419Z,14.13
2023-02-19T08:39:45.531Z,14.40
2023-02-19T08:42:13.735Z,14.33
2023-02-19T08:44:41.814Z,14.71
2023-02-19T08:47:09.933Z,15.08
2023-02-19T08:49:39.916Z,15.18
2023-02-19T08:52:08.229Z,14.90
2023-02-19T08:54:37.314Z,15.05
2023-02-19T08:57:05.635Z,15.10
2023-02-19T08:59:34.247Z,14.87
2023-02-19T09:02:02.422Z,14.78
2023-02-19T09:04:30.643Z,14.80
2023-02-19T09:06:59.234Z,14.93
2023-02-19T09:09:27.420Z,14.74
2023-02-19T09:11:55.498Z,14.01
2023-02-19T09:14:23.645Z,13.88
2023-02-19T09:16:51.825Z,13.92
2023-02-19T09:19:19.860Z,14.11
2023-02-19T09:21:48.342Z,14.17
2023-02-19T09:24:16.685Z,13.86
2023-02-19T09:26:44.953Z,13.96
2023-02-19T09:29:13.336Z,13.31
2023-02-19T09:31:41.829Z,13.56
2023-02-19T09:34:11.921Z,13.22
2023-02-19T09:36:40.664Z,13.01
2023-02-19T09:39:10.651Z,13.09
2023-02-19T09:41:46.664Z,13.38
2023-02-19T09:44:36.692Z,13.56
2023-02-19T09:47:13.473Z,13.73
2023-02-19T09:49:50.152Z,13.61
2023-02-19T09:52:45.379Z,13.65
2023-02-19T09:55:17.273Z,13.30
2023-02-19T09:57:47.326Z,13.45
2023-02-19T10:00:27.859Z,13.50
2023-02-19T10:03:36.155Z,13.67
2023-02-19T10:06:20.551Z,14.02
2023-02-19T10:08:51.505Z,14.09
2023-02-19T10:11:20.504Z,14.01
2023-02-19T10:14:01.944Z,13.58
2023-02-19T10:16:31.324Z,13.33
2023-02-19T10:18:59.449Z,12.99
2023-02-19T10:21:28.776Z,12.85
2023-02-19T10:24:01.828Z,12.85
2023-02-19T10:26:35.294Z,12.73
2023-02-19T10:29:05.209Z,12.68
2023-02-19T10:31:33.718Z,12.97
2023-02-19T10:34:02.536Z,13.31
2023-02-19T10:36:42.662Z,13.68
2023-02-19T10:39:42.827Z,13.80
2023-02-19T10:42:22.495Z,13.51
2023-02-19T10:44:58.704Z,13.23
2023-02-19T10:47:29.362Z,13.50
2023-02-19T10:50:03.400Z,13.77
2023-02-19T10:52:36.353Z,13.72
2023-02-19T10:55:28.441Z,13.75
2023-02-19T10:57:57.959Z,13.63
2023-02-19T11:00:30.538Z,13.69
2023-02-19T11:03:24.004Z,13.87
2023-02-19T11:06:00.133Z,13.63
2023-02-19T11:08:29.395Z,13.52
2023-02-19T11:10:57.534Z,13.31
2023-02-19T11:13:38.209Z,13.03
2023-02-19T11:16:06.565Z,12.94
2023-02-19T11:18:36.457Z,12.79
2023-02-19T11:21:07.453Z,12.50
2023-02-19T11:23:38.679Z,12.22
2023-02-19T11:26:19.332Z,12.11
2023-02-19T11:28:59.918Z,11.97
2023-02-19T11:31:32.189Z,11.78
2023-02-19T11:34:30.001Z,11.66
2023-02-19T11:37:10.355Z,11.53
2023-02-19T11:39:41.162Z,11.39
2023-02-19T11:42:14.902Z,11.17
2023-02-19T11:45:07.436Z,11.03
2023-02-19T11:48:22.296Z,11.02
2023-02-19T11:51:06.037Z,10.92
2023-02-19T11:53:37.584Z,10.80
2023-02-19T11:56:33.827Z,10.72
2023-02-19T11:59:17.773Z,10.62
2023-02-19T12:01:51.607Z,10.60
2023-02-19T12:04:51.222Z,10.56
2023-02-19T12:07:46.767Z,10.47
2023-02-19T12:10:15.326Z,10.39
2023-02-19T12:12:55.544Z,10.35
2023-02-19T12:15:59.388Z,10.30
2023-02-19T12:18:42.786Z,10.05
2023-02-19T12:21:35.807Z,10.03
2023-02-19T12:24:16.059Z,10.05
2023-02-19T12:27:05.858Z,9.96
2023-02-19T12:29:49.020Z,9.71
2023-02-19T12:32:35.769Z,9.72
2023-02-19T12:35:24.666Z,9.73
2023-02-19T12:38:22.910Z,9.79
2023-02-19T12:41:14.846Z,9.84
2023-02-19T12:43:59.200Z,9.83
2023-02-19T12:46:38.574Z,9.84
2023-02-19T12:49:25.520Z,9.82
2023-02-19T12:52:24.943Z,9.74
2023-02-19T12:54:57.615Z,9.75
2023-02-19T12:57:30.286Z,9.67
2023-02-19T13:00:26.943Z,9.56
2023-02-19T13:03:10.677Z,9.41
2023-02-19T13:05:50.021Z,9.29
2023-02-19T13:08:34.133Z,9.24
2023-02-19T13:11:27.825Z,9.28
2023-02-19T13:14:00.420Z,9.20
2023-02-19T13:16:35.029Z,9.07
2023-02-19T13:19:04.857Z,8.95
2023-02-19T13:21:55.831Z,8.92
2023-02-19T13:24:28.188Z,8.90
2023-02-19T13:27:05.525Z,8.86
2023-02-19T13:29:53.938Z,8.84
2023-02-19T13:32:56.377Z,8.78
2023-02-19T13:35:27.393Z,8.70
2023-02-19T13:38:00.361Z,8.72
2023-02-19T13:40:33.462Z,8.71
2023-02-19T13:43:06.347Z,8.66
2023-02-19T13:45:40.252Z,8.51
2023-02-19T13:48:23.694Z,8.46
2023-02-19T13:51:21.755Z,8.44
2023-02-19T13:53:56.038Z,8.36
2023-02-19T13:56:30.320Z,8.34
2023-02-19T13:59:23.144Z,8.29
2023-02-19T14:01:54.181Z,8.23
2023-02-19T14:04:25.241Z,8.19
2023-02-19T14:07:06.201Z,8.29
2023-02-19T14:09:37.858Z,8.35
2023-02-19T14:12:06.330Z,8.35
2023-02-19T14:14:36.060Z,8.41
2023-02-19T14:17:23.891Z,8.47
2023-02-19T14:19:59.416Z,8.54
2023-02-19T14:22:46.256Z,8.61
2023-02-19T14:25:33.197Z,8.68
2023-02-19T14:28:27.211Z,8.76
2023-02-19T14:31:18.311Z,8.81
2023-02-19T14:33:59.946Z,8.88
2023-02-19T14:36:53.176Z,8.95
2023-02-19T14:39:26.475Z,9.03
2023-02-19T14:41:59.321Z,9.09
2023-02-19T14:44:32.169Z,9.15
2023-02-19T14:47:07.298Z,9.22
2023-02-19T14:49:51.683Z,9.25
2023-02-19T14:52:41.131Z,9.18
2023-02-19T14:55:13.375Z,9.16
2023-02-19T14:57:46.127Z,9.18
2023-02-19T15:00:23.760Z,9.17
2023-02-19T15:02:55.895Z,9.13
2023-02-19T15:05:39.397Z,9.08
2023-02-19T15:08:18.786Z,9.03
2023-02-19T15:10:48.553Z,9.00
2023-02-19T15:13:25.169Z,8.93
2023-02-19T15:15:55.403Z,8.89
2023-02-19T15:18:26.117Z,8.78
2023-02-19T15:21:03.812Z,8.67
2023-02-19T15:23:35.973Z,8.58
2023-02-19T15:26:04.371Z,8.47
2023-02-19T15:28:34.501Z,8.37
2023-02-19T15:31:03.508Z,8.27
2023-02-19T15:33:32.217Z,8.18
2023-02-19T15:36:04.659Z,8.07
2023-02-19T15:38:36.011Z,7.97
2023-02-19T15:41:05.305Z,7.88
2023-02-19T15:43:45.544Z,7.80
2023-02-19T15:46:32.122Z,7.72
2023-02-19T15:49:03.225Z,7.60
2023-02-19T15:51:38.256Z,7.49
2023-02-19T15:54:22.279Z,7.43
2023-02-19T15:56:59.562Z,7.37
2023-02-19T15:59:40.652Z,7.36
2023-02-19T16:02:13.737Z,7.34
2023-02-19T16:04:45.727Z,7.34
2023-02-19T16:07:28.093Z,7.27
2023-02-19T16:10:21.221Z,7.27
2023-02-19T16:12:57.373Z,7.26
2023-02-19T16:15:27.736Z,7.23
2023-02-19T16:17:57.374Z,7.16
2023-02-19T16:20:30.278Z,7.11
2023-02-19T16:23:12.024Z,7.08
2023-02-19T16:25:44.921Z,6.98
2023-02-19T16:28:21.180Z,6.87
2023-02-19T16:30:59.890Z,6.82
2023-02-19T16:33:36.893Z,6.80
2023-02-19T16:36:41.494Z,6.72
2023-02-19T16:39:09.683Z,6.68
2023-02-19T16:41:40.930Z,6.60
2023-02-19T16:44:21.489Z,6.53
2023-02-19T16:46:54.474Z,6.44
2023-02-19T16:49:23.987Z,6.39
2023-02-19T16:51:52.469Z,6.33
2023-02-19T16:54:20.626Z,6.22
2023-02-19T16:56:49.005Z,6.16
2023-02-19T16:59:17.176Z,6.10
2023-02-19T17:01:45.433Z,6.06
2023-02-19T17:04:16.085Z,6.02
2023-02-19T17:06:45.801Z,5.99
2023-02-19T17:09:13.969Z,5.98
2023-02-19T17:11:42.142Z,5.97
2023-02-19T17:14:10.413Z,5.95
2023-02-19T17:16:41.408Z,5.96
2023-02-19T17:19:13.270Z,5.96
2023-02-19T17:21:41.883Z,5.94
2023-02-19T17:24:10.076Z,5.92
2023-02-19T17:26:38.350Z,5.91
2023-02-19T17:29:14.149Z,5.91
2023-02-19T17:31:42.403Z,5.89
2023-02-19T17:34:11.538Z,5.92
2023-02-19T17:36:41.184Z,5.95
2023-02-19T17:39:15.982Z,5.93
2023-02-19T17:41:44.227Z,5.96
2023-02-19T17:44:12.358Z,6.03
2023-02-19T17:46:41.259Z,6.10
2023-02-19T17:49:12.769Z,6.13
2023-02-19T17:51:40.975Z,6.14
2023-02-19T17:54:09.646Z,6.15
2023-02-19T17:56:40.119Z,6.21
2023-02-19T17:59:08.235Z,6.30
2023-02-19T18:01:36.531Z,6.40
2023-02-19T18:04:05.560Z,6.51
2023-02-19T18:06:34.725Z,6.60
2023-02-19T18:09:03.403Z,6.72
2023-02-19T18:11:31.635Z,6.77
2023-02-19T18:13:59.859Z,6.79
2023-02-19T18:16:28.284Z,6.80
2023-02-19T18:18:58.662Z,6.76
2023-02-19T18:21:27.053Z,6.85
2023-02-19T18:23:55.240Z,6.84
2023-02-19T18:26:23.621Z,6.89
2023-02-19T18:28:51.883Z,6.91
2023-02-19T18:31:20.243Z,6.94
2023-02-19T18:33:48.632Z,6.97
2023-02-19T18:36:17.570Z,7.01
2023-02-19T18:38:46.357Z,7.03
2023-02-19T18:41:19.569Z,7.03
2023-02-19T18:43:48.949Z,7.02
2023-02-19T18:46:21.519Z,7.03
2023-02-19T18:48:49.649Z,7.01
2023-02-19T18:51:17.809Z,7.00
2023-02-19T18:53:46.312Z,6.99
2023-02-19T18:56:14.575Z,6.99
2023-02-19T18:58:45.638Z,7.00
2023-02-19T19:01:14.215Z,7.01
2023-02-19T19:03:42.587Z,7.03
2023-02-19T19:06:10.753Z,7.07
2023-02-19T19:08:39.132Z,7.11
2023-02-19T19:11:09.797Z,7.14
2023-02-19T19:13:38.449Z,7.18
2023-02-19T19:16:11.748Z,7.23
2023-02-19T19:18:40.432Z,7.29
2023-02-19T19:21:09.918Z,7.28
2023-02-19T19:23:38.214Z,7.22
2023-02-19T19:26:07.043Z,7.20
2023-02-19T19:28:35.230Z,7.19
2023-02-19T19:31:03.557Z,7.02
2023-02-19T19:33:31.725Z,6.85
2023-02-19T19:35:59.895Z,6.76
2023-02-19T19:38:28.171Z,6.72
2023-02-19T19:40:56.417Z,6.60
2023-02-19T19:43:29.954Z,6.43
2023-02-19T19:45:59.009Z,6.42
2023-02-19T19:48:29.734Z,6.32
2023-02-19T19:50:58.049Z,6.25
2023-02-19T19:53:26.531Z,6.25
2023-02-19T19:55:54.807Z,6.26
2023-02-19T19:58:24.935Z,6.21
2023-02-19T20:00:53.565Z,6.13
2023-02-19T20:03:22.504Z,6.03
2023-02-19T20:05:51.378Z,5.94
2023-02-19T20:08:19.858Z,5.78
2023-02-19T20:10:48.249Z,5.67
2023-02-19T20:13:24.517Z,5.60
2023-02-19T20:15:52.830Z,5.53
2023-02-19T20:18:21.790Z,5.45
2023-02-19T20:20:49.954Z,5.37
2023-02-19T20:23:18.231Z,5.23
2023-02-19T20:25:46.401Z,5.13
2023-02-19T20:28:14.573Z,5.09
2023-02-19T20:30:43.927Z,5.05
2023-02-19T20:33:12.251Z,4.94
2023-02-19T20:35:41.045Z,4.92
2023-02-19T20:38:09.174Z,4.90
2023-02-19T20:40:37.416Z,4.87
2023-02-19T20:43:05.503Z,4.84
2023-02-19T20:45:33.921Z,4.80
2023-02-19T20:48:02.127Z,4.73
2023-02-19T20:50:30.503Z,4.63
2023-02-19T20:52:58.673Z,4.60
2023-02-19T20:55:26.842Z,4.57
2023-02-19T20:57:55.114Z,4.53
2023-02-19T21:00:23.908Z,4.46
2023-02-19T21:02:52.311Z,4.42
2023-02-19T21:05:20.865Z,4.37
2023-02-19T21:07:49.552Z,4.35
2023-02-19T21:10:18.338Z,4.33
2023-02-19T21:12:46.823Z,4.26
2023-02-19T21:15:15.510Z,4.25
2023-02-19T21:17:47.348Z,4.18
2023-02-19T21:20:19.810Z,4.23
2023-02-19T21:22:48.117Z,4.15
2023-02-19T21:25:16.290Z,4.14
2023-02-19T21:27:44.562Z,4.08
2023-02-19T21:30:13.506Z,4.10
2023-02-19T21:32:41.934Z,4.06
2023-02-19T21:35:10.418Z,4.04
2023-02-19T21:37:42.539Z,4.03
2023-02-19T21:40:12.325Z,4.03
2023-02-19T21:42:40.569Z,4.05
2023-02-19T21:45:09.058Z,4.10
2023-02-19T21:47:37.224Z,4.12
2023-02-19T21:50:06.448Z,4.16
2023-02-19T21:52:34.809Z,4.20
2023-02-19T21:55:03.117Z,4.23
2023-02-19T21:57:32.597Z,4.23
2023-02-19T22:00:00.846Z,4.18
2023-02-19T22:02:29.036Z,4.19
2023-02-19T22:04:57.917Z,4.20
2023-02-19T22:07:26.190Z,4.23
2023-02-19T22:09:54.465Z,4.25
2023-02-19T22:12:22.843Z,4.24
2023-02-19T22:14:51.841Z,4.20
2023-02-19T22:17:20.833Z,4.15
2023-02-19T22:19:48.983Z,4.10
2023-02-19T22:22:17.178Z,4.06
2023-02-19T22:24:45.454Z,4.04
2023-02-19T22:27:13.727Z,3.99
2023-02-19T22:29:41.927Z,3.93
2023-02-19T22:32:10.721Z,3.91
2023-02-19T22:34:40.914Z,3.87
2023-02-19T22:37:10.448Z,3.84
2023-02-19T22:39:40.369Z,3.83
2023-02-19T22:42:08.606Z,3.81
2023-02-19T22:44:36.996Z,3.76
2023-02-19T22:47:05.363Z,3.71
2023-02-19T22:49:33.638Z,3.69
2023-02-19T22:52:05.901Z,3.61
2023-02-19T22:54:37.262Z,3.58
2023-02-19T22:57:06.187Z,3.56
2023-02-19T22:59:34.527Z,3.55
2023-02-19T23:02:02.802Z,3.53
2023-02-19T23:04:31.423Z,3.49
2023-02-19T23:06:59.663Z,3.47
2023-02-19T23:09:29.484Z,3.44
2023-02-19T23:12:23.861Z,3.42
2023-02-19T23:14:52.240Z,3.41
2023-02-19T23:17:20.528Z,3.39
2023-02-19T23:19:48.693Z,3.38
2023-02-19T23:22:16.967Z,3.31
2023-02-19T23:24:45.138Z,3.32
2023-02-19T23:27:13.418Z,3.31
2023-02-19T23:29:41.594Z,3.31
2023-02-19T23:32:10.918Z,3.31
2023-02-19T23:34:39.053Z,3.31
2023-02-19T23:37:07.234Z,3.31
2023-02-19T23:39:35.519Z,3.32
2023-02-19T23:42:03.889Z,3.32
2023-02-19T23:44:32.266Z,3.33
2023-02-19T23:47:00.542Z,3.36
2023-02-19T23:49:28.713Z,3.34
2023-02-19T23:51:56.892Z,3.35
2023-02-19T23:54:25.058Z,3.37
2023-02-19T23:56:53.337Z,3.36
2023-02-19T23:59:21.610Z,3.31
